Time;durP1;ratioP1;P1;durP2;ratioP2;P2;SDS_P1;SDS_P2;PMS_P1;PMS_P2;Temp;Humidity;BMP_temperature;BMP_pressure;BME280_temperature;BME280_humidity;BME280_pressure;Samples;Min_cycle;Max_cycle;Signal;HPM_P1;HPM_P2
2022/04/20 00:02:21;;;;;;;4.90;4.40;;;7.40;96.70;;;;;;5012021;28;20935;-73
2022/04/20 00:04:48;;;;;;;4.10;3.80;;;7.40;96.80;;;;;;5026702;28;20504;-73
2022/04/20 00:07:15;;;;;;;4.50;4.07;;;7.30;96.90;;;;;;5031299;28;20450;-73
2022/04/20 00:09:41;;;;;;;5.50;4.67;;;7.30;97.00;;;;;;5025475;28;20490;-73
2022/04/20 00:12:09;;;;;;;12.03;4.53;;;7.30;97.10;;;;;;5012542;28;20454;-73
2022/04/20 00:14:36;;;;;;;4.40;3.60;;;7.30;97.10;;;;;;5025729;28;20458;-73
2022/04/20 00:17:04;;;;;;;8.30;4.30;;;7.30;97.20;;;;;;5030590;28;20489;-73
2022/04/20 00:19:31;;;;;;;3.80;3.50;;;7.30;97.30;;;;;;5031715;28;20469;-73
2022/04/20 00:21:58;;;;;;;4.93;4.53;;;7.30;97.40;;;;;;5030909;28;20833;-73
2022/04/20 00:24:24;;;;;;;4.27;3.90;;;7.20;97.40;;;;;;5018970;28;21024;-73
2022/04/20 00:26:51;;;;;;;4.47;4.07;;;7.20;97.90;;;;;;5016559;28;20458;-73
2022/04/20 00:29:17;;;;;;;4.77;4.10;;;7.20;97.90;;;;;;5022789;28;20477;-73
2022/04/20 00:31:44;;;;;;;4.20;3.90;;;7.10;97.80;;;;;;5030747;28;20945;-73
2022/04/20 00:34:12;;;;;;;3.97;3.67;;;7.10;97.90;;;;;;5020899;28;20501;-73
2022/04/20 00:36:39;;;;;;;5.57;4.33;;;7.10;98.00;;;;;;5011525;28;20540;-73
2022/04/20 00:39:06;;;;;;;4.97;3.90;;;7.00;98.20;;;;;;5010667;28;20893;-73
2022/04/20 00:41:33;;;;;;;5.77;3.93;;;7.00;98.20;;;;;;5016313;28;20457;-73
2022/04/20 00:44:00;;;;;;;8.50;4.37;;;6.90;98.30;;;;;;5022220;28;20454;-73
2022/04/20 00:46:28;;;;;;;5.10;3.50;;;6.90;98.50;;;;;;5022887;28;21226;-73
2022/04/20 00:48:56;;;;;;;6.90;4.27;;;6.90;98.60;;;;;;5030264;28;20461;-73
2022/04/20 00:51:24;;;;;;;4.30;3.97;;;6.80;98.70;;;;;;5023613;28;20454;-73
2022/04/20 00:53:50;;;;;;;6.50;4.40;;;6.80;99.00;;;;;;5018084;28;21311;-73
2022/04/20 00:56:17;;;;;;;4.43;4.03;;;6.80;99.40;;;;;;5020268;28;20490;-73
2022/04/20 00:58:44;;;;;;;6.10;4.23;;;6.70;99.40;;;;;;5019594;28;20953;-73
2022/04/20 01:01:11;;;;;;;6.50;4.20;;;6.60;99.60;;;;;;5030219;28;20862;-73
2022/04/20 01:03:38;;;;;;;4.60;3.80;;;6.60;99.80;;;;;;5024610;28;20956;-73
2022/04/20 01:06:07;;;;;;;8.93;3.90;;;6.60;99.90;;;;;;5021188;28;20453;-73
2022/04/20 01:08:35;;;;;;;5.37;4.10;;;6.60;99.90;;;;;;5026090;28;20461;-73
2022/04/20 01:11:02;;;;;;;5.43;4.17;;;6.60;99.90;;;;;;5012382;28;20528;-73
2022/04/20 01:13:29;;;;;;;11.20;4.43;;;6.50;99.90;;;;;;5021439;28;20957;-73
2022/04/20 01:15:56;;;;;;;4.73;4.23;;;6.50;99.90;;;;;;5030545;28;20650;-73
2022/04/20 01:18:23;;;;;;;7.33;4.50;;;6.50;99.90;;;;;;5027653;28;20458;-73
2022/04/20 01:20:50;;;;;;;5.70;4.40;;;6.50;99.90;;;;;;5023734;28;20550;-73
2022/04/20 01:23:17;;;;;;;5.40;4.17;;;6.50;99.90;;;;;;5019816;28;20454;-73
2022/04/20 01:25:44;;;;;;;5.73;3.90;;;6.50;99.90;;;;;;5012441;28;20450;-73
2022/04/20 01:28:11;;;;;;;7.00;3.97;;;6.40;99.90;;;;;;5013570;28;20446;-73
2022/04/20 01:30:37;;;;;;;5.83;4.40;;;6.40;99.90;;;;;;5030664;28;20477;-73
2022/04/20 01:33:04;;;;;;;6.50;4.30;;;6.40;99.90;;;;;;5030544;28;20465;-74
2022/04/20 01:35:31;;;;;;;6.67;3.97;;;6.40;99.90;;;;;;5030694;28;20457;-73
2022/04/20 01:37:59;;;;;;;5.30;3.70;;;6.40;99.90;;;;;;5029151;28;20485;-73
2022/04/20 01:40:25;;;;;;;4.73;4.33;;;6.40;99.90;;;;;;5014384;28;20527;-73
2022/04/20 01:42:52;;;;;;;5.03;3.87;;;6.30;99.90;;;;;;5030549;28;20457;-73
2022/04/20 01:45:19;;;;;;;11.10;4.10;;;6.30;99.90;;;;;;5021360;28;20531;-73
2022/04/20 01:47:45;;;;;;;9.37;4.23;;;6.30;99.90;;;;;;5010893;28;20446;-73
2022/04/20 01:50:12;;;;;;;9.23;4.00;;;6.30;99.90;;;;;;5010599;28;20527;-73
2022/04/20 01:52:39;;;;;;;6.90;4.00;;;6.30;99.90;;;;;;5016064;28;20458;-73
2022/04/20 01:55:08;;;;;;;5.20;3.83;;;6.20;99.90;;;;;;5030623;28;20457;-73
2022/04/20 01:57:34;;;;;;;6.33;4.10;;;6.20;99.90;;;;;;5033935;28;20539;-73
2022/04/20 02:00:01;;;;;;;6.77;4.27;;;6.20;99.90;;;;;;5016057;28;20560;-73
2022/04/20 02:02:37;;;;;;;6.67;4.00;;;6.10;99.90;;;;;;5017401;28;20507;-72
2022/04/20 02:05:05;;;;;;;6.73;4.17;;;6.10;99.90;;;;;;5033744;28;20937;-73
2022/04/20 02:07:32;;;;;;;6.80;4.33;;;6.10;99.90;;;;;;5032074;28;20445;-73
2022/04/20 02:09:58;;;;;;;4.10;3.70;;;6.00;99.90;;;;;;5032190;28;20464;-73
2022/04/20 02:12:27;;;;;;;6.67;4.40;;;6.00;99.90;;;;;;5017109;28;20465;-73
2022/04/20 02:14:54;;;;;;;4.93;4.33;;;6.00;99.90;;;;;;5033370;28;20491;-73
2022/04/20 02:17:21;;;;;;;8.03;4.60;;;6.00;99.90;;;;;;5032968;28;20510;-73
2022/04/20 02:19:48;;;;;;;5.27;4.50;;;5.90;99.90;;;;;;5032437;28;20523;-73
2022/04/20 02:22:15;;;;;;;9.33;4.77;;;5.90;99.90;;;;;;5023163;28;20458;-73
2022/04/20 02:24:42;;;;;;;6.70;4.60;;;5.90;99.90;;;;;;5017885;28;20454;-73
2022/04/20 02:27:10;;;;;;;9.40;4.40;;;5.80;99.90;;;;;;5025954;28;20514;-73
2022/04/20 02:29:38;;;;;;;5.43;3.80;;;5.80;99.90;;;;;;5020520;28;20561;-74
2022/04/20 02:32:06;;;;;;;5.43;4.07;;;5.70;99.90;;;;;;5013590;28;20505;-73
2022/04/20 02:34:33;;;;;;;6.63;4.60;;;5.70;99.90;;;;;;5025352;28;20457;-73
2022/04/20 02:37:00;;;;;;;5.30;4.20;;;5.70;99.90;;;;;;5020190;28;21011;-73
2022/04/20 02:39:27;;;;;;;10.33;4.87;;;5.70;99.90;;;;;;5031641;28;20523;-73
2022/04/20 02:41:54;;;;;;;5.20;4.30;;;5.60;99.90;;;;;;5033577;28;20449;-73
2022/04/20 02:44:21;;;;;;;8.83;4.37;;;5.60;99.90;;;;;;5025833;28;20470;-73
2022/04/20 02:46:49;;;;;;;6.30;4.47;;;5.60;99.90;;;;;;5023395;28;20441;-73
2022/04/20 02:49:17;;;;;;;4.83;4.33;;;5.50;99.90;;;;;;5031204;28;21061;-73
2022/04/20 02:51:43;;;;;;;5.90;4.33;;;5.50;99.90;;;;;;5014181;28;20454;-73
2022/04/20 02:54:10;;;;;;;6.87;4.30;;;5.50;99.90;;;;;;5020767;28;20449;-73
2022/04/20 02:56:37;;;;;;;7.10;4.57;;;5.50;99.90;;;;;;5019692;28;21002;-73
2022/04/20 02:59:03;;;;;;;4.53;4.13;;;5.50;99.90;;;;;;5013468;28;20478;-73
2022/04/20 03:01:30;;;;;;;4.47;4.07;;;5.50;99.90;;;;;;5032312;28;20457;-73
2022/04/20 03:03:59;;;;;;;6.40;4.27;;;5.40;99.90;;;;;;5032402;28;20659;-73
2022/04/20 03:06:27;;;;;;;4.13;3.73;;;5.40;99.90;;;;;;5021248;28;20452;-73
2022/04/20 03:08:53;;;;;;;4.50;4.10;;;5.40;99.90;;;;;;5013028;28;20548;-73
2022/04/20 03:11:20;;;;;;;7.13;4.90;;;5.40;99.90;;;;;;5012931;28;21259;-73
2022/04/20 03:13:47;;;;;;;4.57;4.07;;;5.40;99.90;;;;;;5015005;28;20464;-73
2022/04/20 03:16:14;;;;;;;5.53;4.20;;;5.40;99.90;;;;;;5021682;28;20453;-73
2022/04/20 03:18:41;;;;;;;5.57;4.50;;;5.40;99.90;;;;;;5024796;28;20486;-73
2022/04/20 03:21:09;;;;;;;7.47;3.60;;;5.40;99.90;;;;;;5013968;28;20836;-73
2022/04/20 03:23:35;;;;;;;5.63;4.57;;;5.40;99.90;;;;;;5012797;28;20450;-73
2022/04/20 03:26:03;;;;;;;4.40;4.00;;;5.40;99.90;;;;;;5016135;28;20501;-73
2022/04/20 03:28:30;;;;;;;11.67;4.13;;;5.40;99.90;;;;;;5013101;28;20458;-73
2022/04/20 03:30:57;;;;;;;8.10;3.90;;;5.40;99.90;;;;;;5012424;28;20831;-73
2022/04/20 03:33:24;;;;;;;5.00;4.30;;;5.30;99.90;;;;;;5012397;28;20454;-73
2022/04/20 03:35:50;;;;;;;5.70;4.10;;;5.30;99.90;;;;;;5018271;28;20520;-73
2022/04/20 03:38:18;;;;;;;6.33;4.53;;;5.30;99.90;;;;;;5031220;28;20493;-73
2022/04/20 03:40:46;;;;;;;4.83;3.87;;;5.30;99.90;;;;;;5032333;28;20473;-73
2022/04/20 03:43:13;;;;;;;7.63;4.50;;;5.20;99.90;;;;;;5030480;28;20808;-71
2022/04/20 03:45:40;;;;;;;6.37;4.40;;;5.20;99.90;;;;;;5017053;28;20453;-71
2022/04/20 03:48:07;;;;;;;7.87;4.70;;;5.10;99.90;;;;;;5030443;28;20449;-71
2022/04/20 03:50:34;;;;;;;6.03;4.40;;;5.10;99.90;;;;;;5024606;28;20524;-71
2022/04/20 03:53:01;;;;;;;4.63;4.10;;;5.00;99.90;;;;;;5012093;28;20454;-71
2022/04/20 03:55:29;;;;;;;6.73;4.70;;;5.10;99.90;;;;;;5027906;28;20462;-71
2022/04/20 03:57:55;;;;;;;4.53;3.77;;;5.00;99.90;;;;;;5011892;28;20482;-71
2022/04/20 04:00:24;;;;;;;7.93;4.90;;;5.00;99.90;;;;;;5021953;28;21031;-71
2022/04/20 04:02:50;;;;;;;5.23;4.23;;;4.90;99.90;;;;;;5022072;28;20468;-71
2022/04/20 04:05:17;;;;;;;4.40;3.73;;;4.90;99.90;;;;;;5015992;28;20490;-71
2022/04/20 04:07:43;;;;;;;10.00;3.93;;;4.90;99.90;;;;;;5018355;28;20508;-71
2022/04/20 04:10:10;;;;;;;6.87;4.20;;;4.90;99.90;;;;;;5011646;28;21044;-71
2022/04/20 04:12:38;;;;;;;5.53;4.40;;;4.90;99.90;;;;;;5015962;28;20507;-71
2022/04/20 04:15:07;;;;;;;4.30;3.90;;;4.80;99.90;;;;;;5029798;28;20503;-71
2022/04/20 04:17:34;;;;;;;5.70;4.13;;;4.70;99.90;;;;;;5010912;28;20481;-71
2022/04/20 04:20:01;;;;;;;4.03;3.60;;;4.70;99.90;;;;;;5018623;28;20469;-71
2022/04/20 04:22:27;;;;;;;8.23;3.77;;;4.70;99.90;;;;;;5030970;28;20857;-71
2022/04/20 04:24:56;;;;;;;10.10;4.50;;;4.60;99.90;;;;;;5031114;28;20503;-71
2022/04/20 04:27:23;;;;;;;4.20;3.80;;;4.60;99.90;;;;;;5015371;28;20470;-71
2022/04/20 04:29:51;;;;;;;8.83;4.27;;;4.50;99.90;;;;;;5011733;28;20548;-71
2022/04/20 04:32:18;;;;;;;4.87;4.13;;;4.50;99.90;;;;;;5016426;28;20488;-71
2022/04/20 04:34:44;;;;;;;5.07;4.10;;;4.50;99.90;;;;;;5030693;28;20453;-71
2022/04/20 04:37:14;;;;;;;5.50;4.00;;;4.50;99.90;;;;;;5012600;28;20997;-71
2022/04/20 04:39:41;;;;;;;4.37;3.80;;;4.50;99.90;;;;;;5011211;28;20557;-70
2022/04/20 04:42:08;;;;;;;5.50;4.33;;;4.40;99.90;;;;;;5011036;28;20454;-71
2022/04/20 04:44:35;;;;;;;11.03;4.23;;;4.40;99.90;;;;;;5011197;28;20454;-71
2022/04/20 04:49:47;;;;;;;4.50;4.10;;;4.30;99.90;;;;;;5021853;28;20461;-71
2022/04/20 04:52:14;;;;;;;7.47;4.27;;;4.30;99.90;;;;;;5024866;28;20502;-71
2022/04/20 04:54:41;;;;;;;7.20;4.47;;;4.30;99.90;;;;;;5010829;28;20508;-71
2022/04/20 04:57:08;;;;;;;4.10;3.63;;;4.30;99.90;;;;;;5027413;28;20460;-71
2022/04/20 04:59:36;;;;;;;6.97;3.90;;;4.40;99.90;;;;;;5024758;28;20481;-71
2022/04/20 05:02:04;;;;;;;4.53;3.30;;;4.40;99.90;;;;;;5011219;28;20477;-71
2022/04/20 05:04:31;;;;;;;13.13;3.87;;;4.40;99.90;;;;;;5010581;28;20906;-71
2022/04/20 05:06:58;;;;;;;9.73;4.53;;;4.50;99.90;;;;;;5022937;28;20867;-72
2022/04/20 05:09:25;;;;;;;4.50;4.00;;;4.50;99.90;;;;;;5013520;28;20533;-72
2022/04/20 05:11:52;;;;;;;13.53;4.57;;;4.60;99.90;;;;;;5011259;28;20494;-72
2022/04/20 05:14:19;;;;;;;14.73;4.53;;;4.70;99.90;;;;;;5022658;28;20532;-72
2022/04/20 05:16:45;;;;;;;7.77;4.07;;;4.70;99.90;;;;;;5029034;28;20465;-72
2022/04/20 05:19:13;;;;;;;6.93;4.47;;;4.80;99.90;;;;;;5014459;28;20497;-72
2022/04/20 05:21:40;;;;;;;7.03;4.50;;;4.90;99.90;;;;;;5029213;28;20523;-72
2022/04/20 05:24:07;;;;;;;5.30;4.37;;;5.10;99.90;;;;;;5029534;28;20454;-72
2022/04/20 05:26:34;;;;;;;7.17;4.13;;;5.40;99.90;;;;;;5029104;28;20457;-72
2022/04/20 05:29:01;;;;;;;4.40;4.00;;;5.60;99.90;;;;;;5020223;28;20482;-72
2022/04/20 05:31:28;;;;;;;5.50;4.00;;;5.90;99.90;;;;;;5014416;28;20504;-72
2022/04/20 05:33:54;;;;;;;8.23;5.07;;;6.30;99.90;;;;;;5015489;28;20500;-72
2022/04/20 05:36:22;;;;;;;8.07;4.00;;;6.60;99.90;;;;;;5025652;28;20454;-72
2022/04/20 05:41:41;;;;;;;5.97;4.00;;;7.30;99.90;;;;;;5005208;28;20950;-72
2022/04/20 05:44:09;;;;;;;9.20;4.53;;;7.50;99.90;;;;;;5014027;28;20914;-72
2022/04/20 05:46:36;;;;;;;6.50;4.20;;;7.80;99.90;;;;;;5015030;28;20446;-72
2022/04/20 05:49:03;;;;;;;12.73;4.80;;;8.10;99.90;;;;;;5014353;28;20528;-73
2022/04/20 05:51:32;;;;;;;11.57;5.03;;;8.40;99.90;;;;;;5016638;28;20446;-72
2022/04/20 05:53:58;;;;;;;9.53;5.00;;;8.60;99.90;;;;;;5027429;28;21028;-72
2022/04/20 05:56:25;;;;;;;6.83;4.27;;;8.90;99.90;;;;;;5015354;28;20911;-72
2022/04/20 05:58:52;;;;;;;7.67;5.13;;;9.20;99.90;;;;;;5028136;28;20946;-72
2022/04/20 06:01:22;;;;;;;15.50;4.70;;;9.50;99.90;;;;;;5016159;28;20462;-73
2022/04/20 06:03:49;;;;;;;5.87;4.20;;;9.90;99.90;;;;;;5014282;28;20498;-73
2022/04/20 06:06:16;;;;;;;6.93;3.93;;;10.10;99.90;;;;;;5015006;28;20458;-73
2022/04/20 06:08:44;;;;;;;7.97;4.27;;;10.40;99.90;;;;;;5032151;28;20503;-73
2022/04/20 06:11:11;;;;;;;5.63;4.30;;;10.60;99.90;;;;;;5014738;28;20458;-74
2022/04/20 06:13:38;;;;;;;4.50;4.00;;;10.90;99.90;;;;;;5023276;28;20538;-74
2022/04/20 06:16:08;;;;;;;5.33;4.67;;;11.00;99.90;;;;;;5053839;28;20452;-73
2022/04/20 06:18:35;;;;;;;5.33;4.40;;;11.20;99.90;;;;;;5035469;28;20496;-74
2022/04/20 06:21:05;;;;;;;9.10;4.17;;;11.40;99.90;;;;;;5028451;28;20473;-73
2022/04/20 06:23:32;;;;;;;5.07;4.20;;;11.40;99.90;;;;;;5023600;28;20488;-73
2022/04/20 06:26:00;;;;;;;8.40;4.50;;;11.40;99.90;;;;;;5015775;28;20469;-73
2022/04/20 06:28:26;;;;;;;8.27;4.77;;;11.70;99.90;;;;;;5022004;28;20527;-74
2022/04/20 06:30:53;;;;;;;4.63;4.13;;;11.90;99.90;;;;;;5026640;28;20477;-73
2022/04/20 06:33:23;;;;;;;6.23;4.10;;;12.00;99.90;;;;;;5020031;28;20512;-73
2022/04/20 06:35:49;;;;;;;7.20;4.10;;;12.10;99.90;;;;;;5015806;28;20469;-73
2022/04/20 06:38:16;;;;;;;4.63;4.23;;;12.00;99.90;;;;;;5023049;28;20489;-74
2022/04/20 06:40:43;;;;;;;6.90;4.30;;;11.90;99.90;;;;;;5025340;28;20556;-74
2022/04/20 06:43:11;;;;;;;4.40;3.63;;;11.90;99.90;;;;;;5025937;28;20981;-74
2022/04/20 06:45:38;;;;;;;5.63;4.03;;;11.80;99.90;;;;;;5024879;28;20908;-74
2022/04/20 06:48:05;;;;;;;4.80;3.77;;;11.90;99.00;;;;;;5018449;28;20462;-74
2022/04/20 06:50:32;;;;;;;10.03;4.27;;;11.80;98.80;;;;;;5025212;28;20543;-73
2022/04/20 06:58:41;;;;;;;4.00;3.60;;;11.80;99.50;;;;;;4970117;28;20503;-74
2022/04/20 07:01:09;;;;;;;6.70;4.37;;;11.90;99.90;;;;;;5008955;28;20947;-73
2022/04/20 07:03:36;;;;;;;8.10;4.27;;;11.90;99.90;;;;;;5019526;28;20454;-73
2022/04/20 07:06:04;;;;;;;5.30;4.23;;;12.10;99.80;;;;;;5028468;28;20449;-73
2022/04/20 07:08:32;;;;;;;7.43;3.80;;;12.20;98.10;;;;;;5025336;28;20446;-73
2022/04/20 07:10:58;;;;;;;6.53;3.97;;;12.40;98.10;;;;;;5017606;28;20466;-74
2022/04/20 07:13:25;;;;;;;8.53;4.10;;;12.50;97.90;;;;;;5025892;28;20913;-73
2022/04/20 07:15:53;;;;;;;10.53;4.03;;;12.50;96.40;;;;;;5024303;28;20917;-75
2022/04/20 07:18:20;;;;;;;6.67;3.67;;;12.40;97.70;;;;;;5021754;28;20491;-75
2022/04/20 07:20:46;;;;;;;9.23;4.40;;;12.40;97.50;;;;;;5025539;28;20469;-75
2022/04/20 07:23:14;;;;;;;4.80;4.30;;;12.60;97.30;;;;;;5020803;28;20450;-74
2022/04/20 07:25:40;;;;;;;5.30;4.10;;;12.70;97.20;;;;;;5019494;28;20981;-74
2022/04/20 07:28:08;;;;;;;5.10;4.60;;;12.90;97.90;;;;;;5022086;28;20512;-74
2022/04/20 07:30:35;;;;;;;9.20;4.23;;;13.00;97.50;;;;;;5022055;28;20535;-75
2022/04/20 07:33:04;;;;;;;4.17;3.77;;;13.30;97.90;;;;;;5019679;28;20863;-74
2022/04/20 07:35:31;;;;;;;7.50;3.93;;;13.60;97.00;;;;;;5028329;28;20470;-73
2022/04/20 07:37:58;;;;;;;13.93;3.87;;;13.90;96.70;;;;;;5025048;28;20541;-72
2022/04/20 07:40:25;;;;;;;7.57;3.80;;;14.10;95.20;;;;;;5019777;28;20481;-71
2022/04/20 07:42:54;;;;;;;4.03;3.53;;;13.90;94.70;;;;;;5023796;28;20822;-72
2022/04/20 07:45:21;;;;;;;5.40;3.90;;;13.90;94.90;;;;;;5019327;28;20454;-72
2022/04/20 07:47:47;;;;;;;5.27;3.80;;;13.90;94.70;;;;;;5018986;28;20450;-72
2022/04/20 07:50:23;;;;;;;3.63;3.33;;;13.60;94.50;;;;;;5019470;28;20466;-72
2022/04/20 07:52:52;;;;;;;4.70;3.47;;;13.50;94.70;;;;;;5014636;28;20512;-72
2022/04/20 07:55:20;;;;;;;7.93;3.87;;;13.50;93.40;;;;;;5015146;28;20985;-72
2022/04/20 07:57:47;;;;;;;4.40;4.00;;;13.60;92.60;;;;;;5019377;28;20954;-72
2022/04/20 08:00:15;;;;;;;5.63;3.13;;;13.50;93.10;;;;;;5018137;28;20489;-72
2022/04/20 08:02:43;;;;;;;3.50;3.20;;;13.60;90.00;;;;;;5021171;28;20892;-73
2022/04/20 08:05:11;;;;;;;3.83;3.53;;;13.60;89.90;;;;;;5018339;28;20970;-74
2022/04/20 08:07:39;;;;;;;6.20;3.20;;;14.00;89.80;;;;;;5027986;28;20445;-74
2022/04/20 08:10:07;;;;;;;3.13;2.93;;;14.20;86.80;;;;;;5014923;28;20482;-73
2022/04/20 08:12:38;;;;;;;5.47;3.20;;;14.40;87.60;;;;;;5017891;28;20458;-74
2022/04/20 08:15:06;;;;;;;7.10;3.23;;;14.60;87.30;;;;;;5028549;28;20448;-74
2022/04/20 08:17:33;;;;;;;5.60;3.60;;;14.80;86.20;;;;;;5024556;28;20453;-73
2022/04/20 08:20:00;;;;;;;3.90;3.40;;;14.80;87.00;;;;;;5021805;28;20556;-74
2022/04/20 08:22:28;;;;;;;5.13;3.47;;;14.90;85.20;;;;;;5022037;28;20505;-74
2022/04/20 08:24:56;;;;;;;5.13;3.80;;;15.00;85.10;;;;;;5017068;28;20809;-73
2022/04/20 08:27:23;;;;;;;5.00;3.73;;;15.20;84.20;;;;;;5017200;28;20453;-73
2022/04/20 08:29:51;;;;;;;3.53;3.23;;;15.20;85.30;;;;;;5018569;28;20502;-73
2022/04/20 08:32:18;;;;;;;4.40;3.50;;;15.40;84.20;;;;;;5017991;28;20564;-74
2022/04/20 08:34:48;;;;;;;4.70;3.90;;;15.20;84.10;;;;;;5025905;28;20458;-73
2022/04/20 08:37:15;;;;;;;5.00;3.80;;;15.10;86.50;;;;;;5022119;28;20453;-73
2022/04/20 08:39:42;;;;;;;3.40;3.10;;;15.30;85.70;;;;;;5019161;28;20486;-73
2022/04/20 08:42:12;;;;;;;7.77;3.77;;;15.40;84.00;;;;;;5018915;28;20484;-73
2022/04/20 08:44:43;;;;;;;7.57;3.40;;;15.60;85.60;;;;;;5013961;28;20473;-73
2022/04/20 08:47:15;;;;;;;6.40;3.70;;;15.70;86.40;;;;;;5023536;28;20979;-73
2022/04/20 08:49:42;;;;;;;7.77;3.53;;;15.50;84.90;;;;;;5018222;28;20465;-73
2022/04/20 08:54:56;;;;;;;3.57;3.27;;;15.80;87.60;;;;;;5023169;28;20449;-73
2022/04/20 08:57:25;;;;;;;4.73;3.67;;;16.10;87.60;;;;;;5021867;28;21139;-73
2022/04/20 08:59:54;;;;;;;4.73;4.30;;;16.30;87.00;;;;;;5020676;28;20573;-74
2022/04/20 09:02:24;;;;;;;3.60;3.30;;;16.70;85.80;;;;;;5022200;28;20520;-74
2022/04/20 09:04:51;;;;;;;3.80;3.40;;;17.10;84.50;;;;;;5025781;28;20432;-74
2022/04/20 09:07:18;;;;;;;7.83;3.97;;;17.20;80.60;;;;;;5019862;28;20527;-73
2022/04/20 09:09:46;;;;;;;3.70;3.40;;;16.90;80.70;;;;;;5010022;28;20449;-73
2022/04/20 09:12:16;;;;;;;3.60;3.00;;;16.70;83.70;;;;;;5014167;28;20429;-74
2022/04/20 09:14:48;;;;;;;4.03;2.90;;;16.50;79.00;;;;;;5034231;28;20671;-74
2022/04/20 09:17:17;;;;;;;4.70;2.90;;;16.20;79.80;;;;;;5048333;28;20449;-74
2022/04/20 09:19:44;;;;;;;6.60;3.07;;;16.10;79.30;;;;;;5026053;28;20477;-74
2022/04/20 09:22:17;;;;;;;4.50;3.57;;;16.00;79.80;;;;;;5030910;28;20456;-74
2022/04/20 09:24:58;;;;;;;4.43;3.20;;;16.20;79.30;;;;;;5012749;28;20424;-74
2022/04/20 09:27:25;;;;;;;3.53;3.10;;;16.40;78.90;;;;;;5025564;28;20875;-74
2022/04/20 09:29:55;;;;;;;2.97;2.67;;;16.40;77.00;;;;;;5029734;28;20980;-73
2022/04/20 09:32:33;;;;;;;4.77;3.20;;;16.70;80.30;;;;;;5030358;28;20449;-74
2022/04/20 09:35:03;;;;;;;3.30;3.00;;;16.90;77.60;;;;;;5019732;28;20888;-74
2022/04/20 09:37:30;;;;;;;5.10;3.80;;;16.90;78.20;;;;;;5022563;28;20956;-74
2022/04/20 09:39:57;;;;;;;4.47;3.63;;;17.00;78.90;;;;;;5018923;28;20875;-74
2022/04/20 09:42:24;;;;;;;3.57;2.90;;;16.90;76.00;;;;;;5010980;28;20834;-74
2022/04/20 09:44:57;;;;;;;8.60;3.20;;;17.10;77.70;;;;;;5009557;28;20508;-74
2022/04/20 09:50:11;;;;;;;6.27;3.30;;;16.90;76.50;;;;;;5010112;28;20548;-74
2022/04/20 09:52:40;;;;;;;4.33;2.93;;;16.40;77.30;;;;;;5011359;28;20535;-74
2022/04/20 09:55:08;;;;;;;3.80;3.50;;;16.40;77.70;;;;;;5020219;28;20466;-74
2022/04/20 09:57:37;;;;;;;6.73;3.10;;;16.50;76.40;;;;;;5019365;28;20825;-73
2022/04/20 10:00:09;;;;;;;3.73;3.33;;;16.50;76.10;;;;;;5013597;28;20552;-73
2022/04/20 10:02:38;;;;;;;4.63;3.30;;;16.30;75.90;;;;;;5023511;28;20465;-74
2022/04/20 10:05:05;;;;;;;11.87;3.00;;;16.20;78.10;;;;;;5027467;28;20454;-74
2022/04/20 10:07:32;;;;;;;3.10;2.90;;;16.10;77.20;;;;;;5010559;28;20942;-74
2022/04/20 10:09:59;;;;;;;3.80;3.50;;;16.10;76.50;;;;;;5009904;28;20466;-73
2022/04/20 10:12:27;;;;;;;3.53;3.20;;;16.10;75.90;;;;;;5020170;28;20446;-73
2022/04/20 10:17:44;;;;;;;4.50;3.23;;;16.70;75.80;;;;;;5016203;28;20961;-73
2022/04/20 10:20:12;;;;;;;5.40;3.50;;;16.60;76.10;;;;;;5030955;28;20460;-74
2022/04/20 10:22:42;;;;;;;3.30;3.00;;;16.40;75.60;;;;;;5029540;28;20504;-73
2022/04/20 10:25:09;;;;;;;7.43;3.20;;;16.60;76.90;;;;;;5027949;28;20458;-74
2022/04/20 10:27:48;;;;;;;3.60;3.30;;;16.70;76.80;;;;;;5020504;28;20495;-74
2022/04/20 10:30:19;;;;;;;5.30;3.30;;;16.60;75.70;;;;;;5020415;28;20861;-74
2022/04/20 10:32:53;;;;;;;4.87;3.30;;;16.80;79.90;;;;;;5017412;28;20441;-74
2022/04/20 10:35:21;;;;;;;3.80;3.33;;;17.10;77.00;;;;;;5016955;28;20433;-74
2022/04/20 10:38:07;;;;;;;3.30;3.03;;;17.50;76.50;;;;;;5026978;28;20873;-74
2022/04/20 10:40:34;;;;;;;3.93;3.27;;;17.30;76.60;;;;;;5022223;28;20491;-74
2022/04/20 10:43:20;;;;;;;3.70;3.40;;;17.60;76.60;;;;;;5019188;28;20535;-74
2022/04/20 10:46:04;;;;;;;4.20;3.00;;;17.80;76.60;;;;;;5020539;28;20428;-74
2022/04/20 10:48:48;;;;;;;3.67;3.37;;;18.10;77.50;;;;;;5022468;28;20554;-74
2022/04/20 10:51:16;;;;;;;4.57;3.03;;;18.20;75.30;;;;;;5023841;28;20561;-74
2022/04/20 10:53:45;;;;;;;6.43;3.30;;;18.40;76.00;;;;;;5031893;28;20424;-74
2022/04/20 10:56:12;;;;;;;4.60;3.33;;;18.20;75.90;;;;;;5023610;28;20428;-74
2022/04/20 10:59:07;;;;;;;3.73;3.43;;;18.10;76.90;;;;;;5029002;28;20465;-74
2022/04/20 11:02:09;;;;;;;4.90;3.57;;;18.30;78.00;;;;;;5024856;28;20820;-74
2022/04/20 11:04:41;;;;;;;6.57;3.33;;;18.60;75.90;;;;;;5019467;28;20443;-74
2022/04/20 11:07:23;;;;;;;3.83;3.53;;;18.40;75.20;;;;;;5021891;28;20479;-74
2022/04/20 11:10:06;;;;;;;9.40;3.10;;;18.10;74.30;;;;;;5018714;28;20558;-74
2022/04/20 11:18:45;;;;;;;4.10;3.70;;;19.30;75.50;;;;;;4959706;28;20418;-74
2022/04/20 11:21:19;;;;;;;4.20;3.50;;;18.90;73.20;;;;;;4963455;28;20462;-74
2022/04/20 11:23:57;;;;;;;8.80;3.17;;;18.30;75.00;;;;;;4997220;28;20454;-74
2022/04/20 11:26:28;;;;;;;3.03;2.83;;;18.30;76.30;;;;;;5018814;28;20906;-74
2022/04/20 11:28:56;;;;;;;4.97;3.17;;;18.60;76.00;;;;;;5015916;28;20456;-74
2022/04/20 11:31:23;;;;;;;5.70;3.40;;;18.60;73.30;;;;;;5026036;28;20437;-74
2022/04/20 11:33:52;;;;;;;3.60;3.20;;;18.90;74.50;;;;;;5016912;28;20432;-74
2022/04/20 11:36:21;;;;;;;4.18;2.90;;;19.10;75.30;;;;;;5018469;28;20909;-75
2022/04/20 11:38:50;;;;;;;7.63;3.60;;;19.30;82.00;;;;;;5022437;28;20295;-78
2022/04/20 11:41:19;;;;;;;3.80;3.30;;;19.60;76.60;;;;;;5030420;28;20487;-80
2022/04/20 11:43:47;;;;;;;4.57;3.30;;;19.70;74.80;;;;;;5022692;28;20950;-79
2022/04/20 11:46:14;;;;;;;3.50;3.23;;;19.40;74.40;;;;;;5019705;28;20449;-78
2022/04/20 11:48:56;;;;;;;4.70;2.83;;;19.20;74.70;;;;;;5025285;28;20450;-78
2022/04/20 11:51:27;;;;;;;7.83;3.40;;;19.40;83.20;;;;;;5022402;28;20495;-81
2022/04/20 11:53:54;;;;;;;10.37;3.57;;;19.60;78.90;;;;;;5016155;28;20450;-78
2022/04/20 11:56:37;;;;;;;4.03;3.23;;;19.90;80.60;;;;;;5028473;28;20461;-79
2022/04/20 11:59:07;;;;;;;3.57;3.10;;;19.80;77.60;;;;;;5022684;28;20505;-78
2022/04/20 12:01:35;;;;;;;6.70;3.30;;;19.90;76.00;;;;;;5023430;28;20524;-77
2022/04/20 12:04:04;;;;;;;4.23;3.83;;;19.90;80.00;;;;;;5021684;28;20928;-77
2022/04/20 12:06:32;;;;;;;6.93;3.43;;;20.10;78.90;;;;;;5013098;28;20464;-76
2022/04/20 12:08:59;;;;;;;4.73;3.63;;;19.70;79.30;;;;;;5021394;28;20543;-76
2022/04/20 12:11:26;;;;;;;5.40;3.10;;;19.40;79.50;;;;;;5023103;28;20435;-76
2022/04/20 12:13:56;;;;;;;10.13;3.30;;;19.60;81.00;;;;;;5020879;28;20481;-77
2022/04/20 12:16:26;;;;;;;4.03;3.40;;;19.80;78.60;;;;;;5022856;28;20454;-76
2022/04/20 12:18:53;;;;;;;4.87;3.20;;;20.00;79.70;;;;;;5017953;28;20428;-76
2022/04/20 12:21:41;;;;;;;3.47;3.10;;;20.20;79.00;;;;;;5017770;28;20569;-76
2022/04/20 12:24:09;;;;;;;6.13;3.00;;;20.40;81.30;;;;;;5018205;28;21097;-76
2022/04/20 12:26:41;;;;;;;2.90;2.70;;;20.50;74.80;;;;;;5022099;28;20500;-76
2022/04/20 12:29:08;;;;;;;2.97;2.60;;;20.40;75.70;;;;;;5016164;28;21008;-77
2022/04/20 12:31:40;;;;;;;6.83;2.80;;;20.10;73.70;;;;;;5020439;28;20461;-76
2022/04/20 12:34:08;;;;;;;5.60;2.93;;;20.50;76.10;;;;;;5026724;28;20479;-76
2022/04/20 12:39:30;;;;;;;3.73;2.67;;;20.70;74.90;;;;;;5147237;27;20316;-77
2022/04/20 12:41:58;;;;;;;2.57;2.37;;;21.20;76.40;;;;;;5126794;28;20540;-77
2022/04/20 12:44:46;;;;;;;3.07;2.87;;;21.20;73.90;;;;;;5125448;28;20445;-76
2022/04/20 12:47:39;;;;;;;3.60;2.80;;;21.30;76.40;;;;;;5124919;28;20453;-76
2022/04/20 12:50:37;;;;;;;8.03;3.07;;;21.30;73.10;;;;;;5125844;27;21059;-76
2022/04/20 12:53:04;;;;;;;4.27;3.00;;;21.20;72.50;;;;;;5076919;28;20472;-76
2022/04/20 13:02:01;;;;;;;5.30;2.83;;;20.80;76.70;;;;;;5127252;28;20449;-76
2022/04/20 13:04:14;;;;;;;4.13;2.87;;;20.90;71.80;;;;;;5125195;28;20454;-76
2022/04/20 13:06:41;;;;;;;4.23;2.60;;;20.70;72.10;;;;;;5127777;28;20560;-76
2022/04/20 13:09:08;;;;;;;2.83;2.63;;;20.60;76.00;;;;;;5127428;27;20477;-76
2022/04/20 13:11:36;;;;;;;2.97;2.57;;;20.70;73.70;;;;;;5127030;28;20449;-75
2022/04/20 13:14:02;;;;;;;5.20;2.23;;;21.00;71.80;;;;;;5126044;28;20502;-76
2022/04/20 13:16:29;;;;;;;3.20;2.90;;;20.90;70.20;;;;;;5124928;28;20424;-76
2022/04/20 13:18:56;;;;;;;3.90;2.57;;;20.80;77.20;;;;;;5128342;27;20481;-78
2022/04/20 13:21:23;;;;;;;4.10;2.90;;;20.90;76.30;;;;;;5126792;28;20497;-79
2022/04/20 13:23:50;;;;;;;2.67;2.47;;;21.10;74.90;;;;;;5126385;28;20552;-79
2022/04/20 13:29:02;;;;;;;2.70;2.50;;;21.20;72.80;;;;;;5127860;27;20514;-79
2022/04/20 13:31:29;;;;;;;3.23;2.93;;;21.00;72.10;;;;;;5127241;28;20453;-79
2022/04/20 13:33:56;;;;;;;4.33;2.70;;;21.20;73.40;;;;;;5127116;27;21081;-79
2022/04/20 13:36:22;;;;;;;4.27;2.50;;;21.00;72.90;;;;;;5126569;28;20484;-79